createdAt,value
2018-09-26T00:02:09.447Z,1.97
2018-09-26T00:04:43.538Z,5.03
2018-09-26T00:07:12.674Z,1.67
2018-09-26T00:09:41.774Z,3.30
2018-09-26T00:12:11.303Z,2.07
2018-09-26T00:14:40.390Z,1.40
2018-09-26T00:17:09.542Z,1.87
2018-09-26T00:19:38.992Z,3.93
2018-09-26T00:22:08.076Z,1.90
2018-09-26T00:24:37.138Z,1.20
2018-09-26T00:27:06.256Z,2.60
2018-09-26T00:29:35.261Z,2.07
2018-09-26T00:32:04.295Z,3.57
2018-09-26T00:34:33.627Z,1.70
2018-09-26T00:37:02.631Z,1.90
2018-09-26T00:39:31.727Z,1.40
2018-09-26T00:42:00.809Z,3.23
2018-09-26T00:44:29.829Z,2.53
2018-09-26T00:46:58.867Z,2.17
2018-09-26T00:49:28.258Z,3.70
2018-09-26T00:51:57.281Z,2.10
2018-09-26T00:54:26.299Z,1.50
2018-09-26T00:56:55.372Z,2.57
2018-09-26T00:59:24.432Z,1.63
2018-09-26T01:01:53.545Z,2.10
2018-09-26T01:04:22.971Z,2.13
2018-09-26T01:06:52.026Z,1.73
2018-09-26T01:09:21.084Z,2.20
2018-09-26T01:11:50.190Z,2.17
2018-09-26T01:14:19.233Z,2.43
2018-09-26T01:16:48.255Z,2.50
2018-09-26T01:19:17.590Z,1.70
2018-09-26T01:21:46.636Z,2.33
2018-09-26T01:24:15.663Z,1.60
2018-09-26T01:26:44.748Z,3.57
2018-09-26T01:29:13.775Z,1.97
2018-09-26T01:31:42.801Z,2.03
2018-09-26T01:34:12.153Z,2.60
2018-09-26T01:36:41.215Z,2.80
2018-09-26T01:39:10.775Z,1.60
2018-09-26T01:41:40.174Z,2.60
2018-09-26T01:44:09.229Z,1.50
2018-09-26T01:46:38.254Z,3.20
2018-09-26T01:49:07.372Z,1.47
2018-09-26T01:51:36.399Z,1.83
2018-09-26T01:54:05.439Z,1.57
2018-09-26T01:56:34.771Z,1.40
2018-09-26T01:59:03.876Z,1.63
2018-09-26T02:01:32.898Z,1.30
2018-09-26T02:04:01.976Z,1.47
2018-09-26T02:06:32.037Z,1.47
2018-09-26T02:09:01.069Z,2.50
2018-09-26T02:11:30.391Z,2.47
2018-09-26T02:13:59.428Z,2.23
2018-09-26T02:16:28.442Z,1.37
2018-09-26T02:18:57.497Z,1.30
2018-09-26T02:21:26.514Z,1.97
2018-09-26T02:23:55.544Z,1.67
2018-09-26T02:26:24.881Z,1.37
2018-09-26T02:28:53.931Z,3.40
2018-09-26T02:31:22.972Z,1.63
2018-09-26T02:33:52.031Z,3.67
2018-09-26T02:36:21.044Z,2.63
2018-09-26T02:38:50.098Z,1.87
2018-09-26T02:41:19.209Z,2.70
2018-09-26T02:43:48.218Z,1.50
2018-09-26T02:46:17.227Z,2.03
2018-09-26T02:48:51.773Z,2.50
2018-09-26T02:51:20.781Z,3.03
2018-09-26T02:53:49.801Z,3.30
2018-09-26T02:56:18.880Z,2.60
2018-09-26T02:58:47.905Z,2.70
2018-09-26T03:01:16.898Z,1.57
2018-09-26T03:03:46.281Z,2.23
2018-09-26T03:06:15.262Z,1.50
2018-09-26T03:08:44.261Z,5.30
2018-09-26T03:14:05.790Z,2.77
2018-09-26T03:16:34.852Z,2.00
2018-09-26T03:19:03.915Z,3.13
2018-09-26T03:21:33.264Z,1.70
2018-09-26T03:24:02.288Z,2.00
2018-09-26T03:26:31.308Z,1.43
2018-09-26T03:29:00.353Z,2.30
2018-09-26T03:31:29.374Z,1.40
2018-09-26T03:33:58.413Z,3.00
2018-09-26T03:36:27.454Z,1.60
2018-09-26T03:38:56.469Z,4.03
2018-09-26T03:41:25.483Z,1.70
2018-09-26T03:43:54.533Z,3.20
2018-09-26T03:46:23.564Z,3.63
2018-09-26T03:48:52.600Z,2.93
2018-09-26T03:51:21.929Z,3.80
2018-09-26T03:53:50.932Z,2.20
2018-09-26T03:56:19.939Z,4.13
2018-09-26T03:58:49.005Z,4.20
2018-09-26T04:01:18.045Z,3.50
2018-09-26T04:03:47.083Z,2.90
2018-09-26T04:06:16.144Z,5.97
2018-09-26T04:08:45.198Z,3.77
2018-09-26T04:11:14.217Z,4.10
2018-09-26T04:13:43.699Z,3.80
2018-09-26T04:16:12.740Z,4.40
2018-09-26T04:18:41.758Z,7.10
2018-09-26T04:21:10.822Z,3.70
2018-09-26T04:23:39.818Z,4.13
2018-09-26T04:26:08.861Z,7.07
2018-09-26T04:28:38.297Z,6.80
2018-09-26T04:31:07.393Z,4.60
2018-09-26T04:33:36.517Z,3.90
2018-09-26T04:36:05.880Z,2.27
2018-09-26T04:38:34.977Z,5.07
2018-09-26T04:41:03.945Z,4.27
2018-09-26T04:43:32.990Z,3.27
2018-09-26T04:46:02.056Z,19.13
2018-09-26T04:48:31.096Z,4.70
2018-09-26T04:51:00.489Z,9.83
2018-09-26T04:53:29.493Z,6.90
2018-09-26T04:55:58.578Z,18.00
2018-09-26T04:58:27.672Z,5.73
2018-09-26T05:00:56.717Z,6.27
2018-09-26T05:03:25.746Z,7.93
2018-09-26T05:05:55.175Z,6.47
2018-09-26T05:08:24.261Z,7.47
2018-09-26T05:10:53.308Z,5.20
2018-09-26T05:13:22.370Z,8.53
2018-09-26T05:15:51.383Z,2.93
2018-09-26T05:18:20.402Z,4.43
2018-09-26T05:20:49.462Z,4.97
2018-09-26T05:23:18.523Z,3.83
2018-09-26T05:25:47.566Z,3.60
2018-09-26T05:28:16.884Z,5.30
2018-09-26T05:30:45.909Z,4.37
2018-09-26T05:33:14.975Z,4.90
2018-09-26T05:35:44.378Z,2.97
2018-09-26T05:38:13.437Z,3.37
2018-09-26T05:40:42.500Z,2.50
2018-09-26T05:43:11.585Z,2.03
2018-09-26T05:45:40.625Z,1.30
2018-09-26T05:48:09.695Z,3.17
2018-09-26T05:50:39.080Z,5.60
2018-09-26T05:53:08.138Z,4.73
2018-09-26T05:55:37.146Z,1.90
2018-09-26T05:58:06.278Z,1.87
2018-09-26T06:00:35.360Z,2.30
2018-09-26T06:03:04.420Z,1.90
2018-09-26T06:05:33.577Z,2.73
2018-09-26T06:08:02.590Z,4.00
2018-09-26T06:10:31.638Z,3.10
2018-09-26T06:13:00.984Z,3.33
2018-09-26T06:15:30.024Z,3.70
2018-09-26T06:17:59.065Z,1.70
2018-09-26T06:20:28.177Z,3.50
2018-09-26T06:22:57.227Z,2.33
2018-09-26T06:25:26.274Z,3.60
2018-09-26T06:27:55.675Z,1.70
2018-09-26T06:30:24.739Z,4.80
2018-09-26T06:32:53.820Z,2.90
2018-09-26T06:35:22.867Z,1.43
2018-09-26T06:37:51.924Z,3.17
2018-09-26T06:40:21.045Z,1.77
2018-09-26T06:42:50.388Z,1.13
2018-09-26T06:45:19.598Z,1.47
2018-09-26T06:47:48.652Z,1.97
2018-09-26T06:50:17.869Z,6.87
2018-09-26T06:52:46.905Z,2.90
2018-09-26T06:55:15.992Z,1.30
2018-09-26T06:57:45.387Z,2.30
2018-09-26T07:00:15.063Z,2.17
2018-09-26T07:02:44.206Z,1.00
2018-09-26T07:05:13.589Z,1.27
2018-09-26T07:07:42.673Z,3.63
2018-09-26T07:10:11.741Z,5.70
2018-09-26T07:12:40.858Z,1.30
2018-09-26T07:15:09.971Z,1.77
2018-09-26T07:17:39.021Z,1.77
2018-09-26T07:20:08.516Z,2.83
2018-09-26T07:22:37.551Z,1.90
2018-09-26T07:25:06.658Z,1.63
2018-09-26T07:27:35.834Z,2.00
2018-09-26T07:30:04.987Z,4.47
2018-09-26T07:32:34.035Z,2.67
2018-09-26T07:35:03.129Z,1.80
2018-09-26T07:37:32.212Z,1.33
2018-09-26T07:40:01.240Z,1.60
2018-09-26T07:42:30.329Z,1.57
2018-09-26T07:44:59.430Z,3.03
2018-09-26T07:47:28.478Z,1.20
2018-09-26T07:49:57.700Z,1.53
2018-09-26T07:52:26.740Z,2.83
2018-09-26T07:54:55.828Z,1.83
2018-09-26T07:57:25.201Z,2.60
2018-09-26T07:59:54.292Z,2.10
2018-09-26T08:02:23.317Z,1.60
2018-09-26T08:04:52.429Z,1.53
2018-09-26T08:07:21.496Z,1.93
2018-09-26T08:09:50.565Z,3.10
2018-09-26T08:12:19.689Z,1.83
2018-09-26T08:14:48.730Z,1.90
2018-09-26T08:17:17.792Z,1.60
2018-09-26T08:19:46.918Z,1.00
2018-09-26T08:22:15.962Z,1.60
2018-09-26T08:24:45.014Z,1.47
2018-09-26T08:27:14.362Z,2.13
2018-09-26T08:29:43.516Z,3.13
2018-09-26T08:32:12.590Z,1.07
2018-09-26T08:34:41.948Z,1.80
2018-09-26T08:37:11.056Z,2.93
2018-09-26T08:39:40.140Z,2.13
2018-09-26T08:42:09.234Z,1.30
2018-09-26T08:44:38.275Z,2.20
2018-09-26T08:47:07.683Z,3.27
2018-09-26T08:49:37.104Z,3.10
2018-09-26T08:52:06.246Z,1.37
2018-09-26T08:54:35.307Z,2.17
2018-09-26T08:57:04.434Z,2.90
2018-09-26T08:59:33.544Z,3.37
2018-09-26T09:02:02.619Z,2.73
2018-09-26T09:04:31.781Z,2.70
2018-09-26T09:07:00.845Z,1.47
2018-09-26T09:09:29.926Z,1.27
2018-09-26T09:11:59.317Z,1.23
2018-09-26T09:14:28.475Z,1.77
2018-09-26T09:16:57.522Z,1.27
2018-09-26T09:19:26.920Z,1.03
2018-09-26T09:21:55.975Z,1.77
2018-09-26T09:24:25.059Z,1.27
2018-09-26T09:26:54.178Z,2.10
2018-09-26T09:29:23.242Z,1.47
2018-09-26T09:31:52.324Z,1.47
2018-09-26T09:34:21.727Z,1.00
2018-09-26T09:36:50.860Z,1.67
2018-09-26T09:39:19.968Z,1.30
2018-09-26T09:41:49.114Z,1.60
2018-09-26T09:44:18.192Z,1.33
2018-09-26T09:46:47.352Z,1.67
2018-09-26T09:49:16.767Z,4.83
2018-09-26T09:51:45.936Z,2.33
2018-09-26T09:54:14.988Z,1.17
2018-09-26T09:56:44.131Z,2.30
2018-09-26T09:59:13.229Z,1.50
2018-09-26T10:01:42.288Z,1.20
2018-09-26T10:04:13.319Z,1.13
2018-09-26T10:06:42.401Z,3.40
2018-09-26T10:09:11.452Z,1.10
2018-09-26T10:11:40.585Z,1.30
2018-09-26T10:14:09.839Z,2.33
2018-09-26T10:16:38.885Z,1.47
2018-09-26T10:19:07.918Z,2.70
2018-09-26T10:21:36.893Z,2.23
2018-09-26T10:24:05.889Z,1.27
2018-09-26T10:26:34.909Z,2.40
2018-09-26T10:29:03.907Z,0.90
2018-09-26T10:31:32.893Z,1.10
2018-09-26T10:34:02.192Z,0.93
2018-09-26T10:36:31.205Z,1.13
2018-09-26T10:39:00.210Z,1.37
2018-09-26T10:41:29.252Z,1.40
2018-09-26T10:43:58.284Z,1.33
2018-09-26T10:46:27.316Z,1.70
2018-09-26T10:48:56.619Z,2.40
2018-09-26T10:51:25.596Z,1.20
2018-09-26T10:53:54.580Z,1.57
2018-09-26T10:56:23.990Z,1.73
2018-09-26T10:58:52.904Z,1.27
2018-09-26T11:01:21.898Z,2.27
2018-09-26T11:03:50.932Z,2.93
2018-09-26T11:06:19.932Z,2.73
2018-09-26T11:08:48.933Z,1.53
2018-09-26T11:11:18.242Z,1.93
2018-09-26T11:13:47.255Z,2.20
2018-09-26T11:16:16.289Z,4.27
2018-09-26T11:18:45.376Z,1.33
2018-09-26T11:21:14.414Z,2.93
2018-09-26T11:23:43.428Z,2.67
2018-09-26T11:26:12.775Z,0.87
2018-09-26T11:28:42.433Z,1.40
2018-09-26T11:31:11.423Z,3.23
2018-09-26T11:33:40.788Z,2.13
2018-09-26T11:36:09.767Z,1.30
2018-09-26T11:38:38.851Z,1.30
2018-09-26T11:41:07.974Z,1.00
2018-09-26T11:43:37.304Z,2.27
2018-09-26T11:46:06.366Z,2.53
2018-09-26T11:48:35.688Z,1.73
2018-09-26T11:51:04.728Z,3.83
2018-09-26T11:53:33.756Z,1.17
2018-09-26T11:56:03.188Z,1.13
2018-09-26T11:58:32.191Z,4.07
2018-09-26T12:01:01.164Z,4.17
2018-09-26T12:03:30.190Z,2.53
2018-09-26T12:05:59.157Z,10.70
2018-09-26T12:08:28.136Z,4.27
2018-09-26T12:10:57.210Z,1.43
2018-09-26T12:13:26.865Z,3.13
2018-09-26T12:15:55.861Z,1.83
2018-09-26T12:18:25.186Z,2.83
2018-09-26T12:20:54.167Z,2.13
2018-09-26T12:23:23.252Z,1.70
2018-09-26T12:25:52.576Z,0.93
2018-09-26T12:28:21.670Z,1.00
2018-09-26T12:30:50.606Z,1.00
2018-09-26T12:33:20.054Z,2.30
2018-09-26T12:35:49.086Z,2.07
2018-09-26T12:38:18.411Z,1.63
2018-09-26T12:40:47.469Z,1.00
2018-09-26T12:43:16.517Z,1.33
2018-09-26T12:45:46.137Z,1.07
2018-09-26T12:48:15.600Z,0.80
2018-09-26T12:50:44.654Z,1.57
2018-09-26T12:53:13.727Z,1.17
2018-09-26T12:55:43.137Z,3.33
2018-09-26T12:58:12.193Z,3.93
2018-09-26T13:00:41.235Z,1.63
2018-09-26T13:03:10.584Z,2.77
2018-09-26T13:05:39.598Z,3.00
2018-09-26T13:08:08.666Z,1.63
2018-09-26T13:10:38.080Z,2.27
2018-09-26T13:13:07.085Z,3.50
2018-09-26T13:15:36.114Z,2.77
2018-09-26T13:18:05.550Z,2.83
2018-09-26T13:20:34.594Z,2.50
2018-09-26T13:23:03.563Z,1.47
2018-09-26T13:25:32.990Z,1.30
2018-09-26T13:28:01.889Z,1.90
2018-09-26T13:30:30.921Z,2.63
2018-09-26T13:33:00.303Z,2.40
2018-09-26T13:35:29.324Z,4.53
2018-09-26T13:37:58.345Z,1.73
2018-09-26T13:40:27.760Z,2.63
2018-09-26T13:42:56.701Z,6.17
2018-09-26T13:45:25.717Z,1.63
2018-09-26T13:47:55.019Z,2.57
2018-09-26T13:50:24.145Z,4.20
2018-09-26T13:52:53.292Z,1.20
2018-09-26T13:55:22.731Z,1.40
2018-09-26T13:57:51.796Z,2.10
2018-09-26T14:00:20.847Z,1.10
2018-09-26T14:02:50.194Z,2.20
2018-09-26T14:05:19.202Z,2.23
2018-09-26T14:07:48.240Z,1.90
2018-09-26T14:10:17.380Z,0.93
2018-09-26T14:12:46.461Z,0.80
2018-09-26T14:15:16.148Z,1.07
2018-09-26T14:17:46.233Z,1.00
2018-09-26T14:20:15.286Z,1.70
2018-09-26T14:22:44.426Z,2.20
2018-09-26T14:25:13.431Z,1.60
2018-09-26T14:27:42.433Z,2.17
2018-09-26T14:30:11.433Z,1.60
2018-09-26T14:32:41.056Z,3.53
2018-09-26T14:35:10.159Z,1.37
2018-09-26T14:37:39.208Z,1.30
2018-09-26T14:40:09.238Z,1.00
2018-09-26T14:42:38.293Z,1.37
2018-09-26T14:45:07.439Z,3.50
2018-09-26T14:47:36.966Z,2.10
2018-09-26T14:50:06.405Z,3.33
2018-09-26T14:52:35.486Z,2.93
2018-09-26T14:55:04.625Z,2.50
2018-09-26T14:57:33.667Z,1.33
2018-09-26T15:00:02.673Z,1.23
2018-09-26T15:02:32.043Z,3.47
2018-09-26T15:05:01.050Z,1.70
2018-09-26T15:07:30.079Z,3.00
2018-09-26T15:09:59.164Z,1.07
2018-09-26T15:12:28.275Z,2.13
2018-09-26T15:14:57.890Z,1.23
2018-09-26T15:17:27.693Z,2.37
2018-09-26T15:19:56.791Z,1.10
2018-09-26T15:22:25.938Z,2.63
2018-09-26T15:24:56.627Z,1.37
2018-09-26T15:27:25.663Z,1.07
2018-09-26T15:29:54.704Z,1.07
2018-09-26T15:32:24.170Z,2.80
2018-09-26T15:34:53.171Z,3.73
2018-09-26T15:37:22.230Z,2.60
2018-09-26T15:39:51.377Z,1.83
2018-09-26T15:42:20.434Z,5.07
2018-09-26T15:44:49.459Z,6.53
2018-09-26T15:47:18.841Z,0.90
2018-09-26T15:49:47.867Z,1.93
2018-09-26T15:52:17.034Z,4.10
2018-09-26T15:54:46.892Z,3.27
2018-09-26T15:57:16.976Z,2.90
2018-09-26T15:59:46.032Z,1.90
2018-09-26T16:02:16.560Z,2.20
2018-09-26T16:04:46.198Z,1.20
2018-09-26T16:07:15.278Z,2.87
2018-09-26T16:09:45.447Z,1.17
2018-09-26T16:12:14.480Z,3.83
2018-09-26T16:14:43.875Z,1.83
2018-09-26T16:17:12.955Z,2.80
2018-09-26T16:19:41.967Z,1.80
2018-09-26T16:22:11.434Z,2.30
2018-09-26T16:24:41.314Z,1.50
2018-09-26T16:27:11.266Z,1.83
2018-09-26T16:29:40.280Z,2.90
2018-09-26T16:32:09.337Z,2.60
2018-09-26T16:34:39.394Z,3.60
2018-09-26T16:37:08.393Z,1.53
2018-09-26T16:39:37.503Z,4.20
2018-09-26T16:42:06.657Z,2.87
2018-09-26T16:44:35.677Z,1.50
2018-09-26T16:47:04.764Z,1.37
2018-09-26T16:49:33.875Z,1.30
2018-09-26T16:52:03.230Z,1.10
2018-09-26T16:54:32.320Z,3.93
2018-09-26T16:57:01.719Z,1.20
2018-09-26T16:59:30.811Z,0.80
2018-09-26T17:02:00.449Z,2.80
2018-09-26T17:04:29.477Z,2.73
2018-09-26T17:06:58.615Z,1.73
2018-09-26T17:09:27.703Z,1.23
2018-09-26T17:11:56.709Z,1.47
2018-09-26T17:14:26.000Z,1.00
2018-09-26T17:16:55.046Z,1.00
2018-09-26T17:19:24.167Z,1.33
2018-09-26T17:21:53.192Z,3.43
2018-09-26T17:24:22.433Z,2.30
2018-09-26T17:26:51.447Z,4.80
2018-09-26T17:29:20.497Z,3.10
2018-09-26T17:31:50.389Z,7.80
2018-09-26T17:34:19.470Z,2.80
2018-09-26T17:36:48.472Z,5.87
2018-09-26T17:39:17.944Z,6.03
2018-09-26T17:41:47.015Z,6.07
2018-09-26T17:44:16.038Z,8.07
2018-09-26T17:46:45.586Z,17.73
2018-09-26T17:49:14.776Z,19.27
2018-09-26T17:51:43.922Z,18.93
2018-09-26T17:54:13.454Z,14.70
2018-09-26T17:56:42.664Z,17.30
2018-09-26T17:59:12.738Z,28.77
2018-09-26T18:01:41.953Z,34.43
2018-09-26T18:04:12.008Z,31.87
2018-09-26T18:06:42.094Z,17.57
2018-09-26T18:09:12.628Z,15.00
2018-09-26T18:11:42.081Z,10.20
2018-09-26T18:14:11.322Z,8.10
2018-09-26T18:16:40.680Z,4.70
2018-09-26T18:19:10.896Z,4.77
2018-09-26T18:21:39.996Z,4.80
2018-09-26T18:24:09.654Z,2.57
2018-09-26T18:26:38.966Z,2.53
2018-09-26T18:29:08.119Z,1.33
2018-09-26T18:31:37.933Z,2.87
2018-09-26T18:34:07.013Z,3.97
2018-09-26T18:36:36.083Z,18.10
2018-09-26T18:39:07.083Z,14.40
2018-09-26T18:41:36.561Z,1.13
2018-09-26T18:44:05.674Z,1.33
2018-09-26T18:46:36.531Z,2.53
2018-09-26T18:49:05.603Z,1.13
2018-09-26T18:51:34.687Z,1.27
2018-09-26T18:54:04.065Z,1.40
2018-09-26T18:56:33.098Z,1.60
2018-09-26T18:59:03.172Z,1.90
2018-09-26T19:01:32.683Z,1.50
2018-09-26T19:04:02.057Z,1.90
2018-09-26T19:06:31.072Z,2.37
2018-09-26T19:09:01.372Z,3.43
2018-09-26T19:11:30.522Z,1.63
2018-09-26T19:13:59.658Z,2.50
2018-09-26T19:16:29.668Z,1.20
2018-09-26T19:18:58.908Z,1.00
2018-09-26T19:21:28.112Z,1.40
2018-09-26T19:23:57.600Z,1.37
2018-09-26T19:26:26.657Z,1.40
2018-09-26T19:28:55.741Z,1.07
2018-09-26T19:31:25.203Z,1.50
2018-09-26T19:33:54.298Z,3.33
2018-09-26T19:36:23.351Z,1.27
2018-09-26T19:38:52.589Z,1.37
2018-09-26T19:41:21.583Z,1.57
2018-09-26T19:43:50.733Z,1.53
2018-09-26T19:46:20.100Z,2.17
2018-09-26T19:48:49.113Z,0.93
2018-09-26T19:51:18.111Z,2.70
2018-09-26T19:53:47.182Z,1.10
2018-09-26T19:56:17.090Z,1.60
2018-09-26T19:58:46.119Z,2.57
2018-09-26T20:01:15.553Z,1.73
2018-09-26T20:03:44.602Z,1.83
2018-09-26T20:06:13.629Z,1.10
2018-09-26T20:08:42.823Z,1.77
2018-09-26T20:11:12.433Z,1.77
2018-09-26T20:13:41.756Z,1.30
2018-09-26T20:16:11.248Z,2.00
2018-09-26T20:18:40.531Z,1.37
2018-09-26T20:21:09.709Z,1.20
2018-09-26T20:23:39.110Z,1.47
2018-09-26T20:26:08.127Z,1.40
2018-09-26T20:28:37.197Z,1.50
2018-09-26T20:31:07.377Z,2.20
2018-09-26T20:33:36.988Z,1.17
2018-09-26T20:36:06.224Z,1.43
2018-09-26T20:38:35.285Z,2.13
2018-09-26T20:41:04.418Z,1.37
2018-09-26T20:43:33.488Z,2.00
2018-09-26T20:46:02.842Z,1.23
2018-09-26T20:48:31.889Z,1.20
2018-09-26T20:51:00.882Z,1.10
2018-09-26T20:53:30.285Z,1.20
2018-09-26T20:55:59.311Z,1.90
2018-09-26T20:58:28.336Z,1.57
2018-09-26T21:00:57.395Z,1.00
2018-09-26T21:03:26.424Z,1.20
2018-09-26T21:05:55.424Z,1.87
2018-09-26T21:08:24.433Z,3.33
2018-09-26T21:10:53.486Z,1.27
2018-09-26T21:13:22.510Z,1.70
2018-09-26T21:15:51.540Z,1.97
2018-09-26T21:18:20.511Z,1.70
2018-09-26T21:20:49.498Z,1.93
2018-09-26T21:23:18.891Z,2.00
2018-09-26T21:25:47.893Z,1.83
2018-09-26T21:28:16.853Z,2.47
2018-09-26T21:30:45.899Z,1.83
2018-09-26T21:33:14.862Z,5.23
2018-09-26T21:35:43.839Z,1.20
2018-09-26T21:38:13.154Z,1.47
2018-09-26T21:40:42.119Z,1.70
2018-09-26T21:43:11.401Z,3.03
2018-09-26T21:45:40.754Z,2.00
2018-09-26T21:48:09.689Z,1.77
2018-09-26T21:50:38.690Z,1.70
2018-09-26T21:53:07.960Z,2.37
2018-09-26T21:55:36.949Z,1.33
2018-09-26T21:58:05.986Z,2.93
2018-09-26T22:00:35.115Z,2.10
2018-09-26T22:03:04.388Z,2.47
2018-09-26T22:05:33.520Z,1.87
2018-09-26T22:08:03.076Z,2.47
2018-09-26T22:10:32.210Z,1.50
2018-09-26T22:13:01.355Z,2.10
2018-09-26T22:15:30.589Z,1.60
2018-09-26T22:17:59.756Z,2.27
2018-09-26T22:20:28.888Z,4.70
2018-09-26T22:22:58.065Z,1.50
2018-09-26T22:25:27.189Z,1.63
2018-09-26T22:27:56.369Z,1.80
2018-09-26T22:30:25.884Z,1.43
2018-09-26T22:32:55.044Z,4.17
2018-09-26T22:35:24.188Z,3.47
2018-09-26T22:37:53.681Z,1.73
2018-09-26T22:40:22.821Z,1.50
2018-09-26T22:42:51.947Z,6.13
2018-09-26T22:45:21.145Z,1.77
2018-09-26T22:47:50.294Z,4.17
2018-09-26T22:50:19.463Z,5.30
2018-09-26T22:52:49.001Z,3.80
2018-09-26T22:55:18.149Z,1.10
2018-09-26T22:57:47.278Z,6.47
2018-09-26T23:00:16.840Z,3.57
2018-09-26T23:02:45.956Z,1.23
2018-09-26T23:05:15.095Z,1.23
2018-09-26T23:07:44.617Z,2.67
2018-09-26T23:10:13.785Z,2.27
2018-09-26T23:12:43.324Z,2.00
2018-09-26T23:15:12.773Z,1.70
2018-09-26T23:17:41.924Z,1.43
2018-09-26T23:20:11.074Z,2.30
2018-09-26T23:22:40.250Z,2.50
2018-09-26T23:25:09.449Z,5.50
2018-09-26T23:27:38.599Z,1.83
2018-09-26T23:30:07.913Z,2.40
2018-09-26T23:32:37.121Z,1.43
2018-09-26T23:35:06.351Z,2.60
2018-09-26T23:37:35.769Z,1.87
2018-09-26T23:40:05.130Z,4.87
2018-09-26T23:42:34.399Z,2.37
2018-09-26T23:45:03.579Z,3.60
2018-09-26T23:47:32.751Z,3.07
2018-09-26T23:50:01.860Z,3.87
2018-09-26T23:52:31.381Z,1.70
2018-09-26T23:55:00.561Z,2.50
2018-09-26T23:57:29.677Z,1.60
2018-09-26T23:59:58.872Z,1.90
